Time;durP1;ratioP1;P1;durP2;ratioP2;P2;SDS_P1;SDS_P2;PMS_P1;PMS_P2;Temp;Humidity;BMP_temperature;BMP_pressure;BME280_temperature;BME280_humidity;BME280_pressure;Samples;Min_cycle;Max_cycle;Signal;HPM_P1;HPM_P2
2023/07/10 00:20:31;;;;;;;;;;;;;;;;;;;;;
2023/07/10 00:23:36;;;;;;;;;;;19.50;99.90;;;;;;4992133;28;19936;-91
2023/07/10 00:26:48;;;;;;;;;;;;;;;;;;;;;
2023/07/10 00:29:39;;;;;;;;;;;19.40;99.90;;;;;;4973816;28;19945;-92
2023/07/10 00:32:34;;;;;;;;;;;;;;;;;;;;;
2023/07/10 00:38:46;;;;;;;;;;;;;;;;;;;;;
2023/07/10 00:41:59;;;;;;;;;;;19.40;99.90;;;;;;4969922;28;20300;-92
2023/07/10 00:44:51;;;;;;;;;;;19.40;99.90;;;;;;4964993;28;19961;-92
2023/07/10 00:59:44;;;;;;;;;;;19.30;99.90;;;;;;5043622;28;20258;-91
2023/07/10 01:02:39;;;;;;;;;;;19.30;99.90;;;;;;5019714;28;19933;-91
2023/07/10 01:06:21;;;;;;;;;;;;;;;;;;;;;
2023/07/10 01:11:13;;;;;;;;;;;19.20;99.90;;;;;;5018893;28;20392;-92
2023/07/10 01:13:57;;;;;;;;;;;19.20;99.90;;;;;;5019567;28;19936;-92
2023/07/10 01:19:38;;;;;;;;;;;;;;;;;;;;;
2023/07/10 01:25:43;;;;;;;;;;;19.10;99.90;;;;;;5056540;28;19929;-92
2023/07/10 01:28:29;;;;;;;;;;;19.50;99.90;;;;;;5045061;28;19925;-92
2023/07/10 01:31:26;;;;;;;;;;;19.00;99.90;;;;;;5021987;28;20444;-91
2023/07/10 01:36:51;;;;;;;;;;;19.00;99.90;;;;;;5048120;28;19959;-91
2023/07/10 01:39:38;;;;;;;;;;;18.60;99.90;;;;;;5014905;28;19925;-92
2023/07/10 01:42:04;;;;;;;;;;;18.90;99.90;;;;;;5040906;28;19932;-92
2023/07/10 01:44:31;;;;;;;;;;;18.80;99.90;;;;;;5016502;28;19927;-92
2023/07/10 01:47:41;;;;;;;;;;;18.80;99.90;;;;;;5021667;28;19925;-92
2023/07/10 01:50:32;;;;;;;;;;;18.80;99.90;;;;;;5005440;28;19925;-92
2023/07/10 01:53:01;;;;;;;;;;;18.80;99.90;;;;;;5001327;28;19928;-92
2023/07/10 01:55:43;;;;;;;;;;;18.70;99.90;;;;;;4996093;28;19972;-92
2023/07/10 01:58:10;;;;;;;;;;;18.80;99.90;;;;;;5002226;28;19936;-93
2023/07/10 02:00:41;;;;;;;;;;;18.70;99.90;;;;;;5012849;28;19925;-92
2023/07/10 02:05:55;;;;;;;;;;;18.70;99.90;;;;;;5000199;28;20047;-93
2023/07/10 02:08:28;;;;;;;;;;;18.60;99.90;;;;;;4983776;28;19992;-92
2023/07/10 02:10:56;;;;;;;;;;;18.70;99.90;;;;;;4998884;28;20336;-93
2023/07/10 02:13:44;;;;;;;;;;;18.60;99.90;;;;;;5014039;28;19928;-92
2023/07/10 02:16:17;;;;;;;;;;;18.40;99.90;;;;;;5019569;28;19932;-92
2023/07/10 02:19:00;;;;;;;;;;;18.60;99.90;;;;;;5023692;28;19929;-91
2023/07/10 02:21:46;;;;;;;;;;;18.60;99.90;;;;;;5017182;28;19928;-92
2023/07/10 02:24:11;;;;;;;;;;;18.60;99.90;;;;;;5005315;28;19925;-92
2023/07/10 02:26:53;;;;;;;;;;;;;;;;;;;;;
2023/07/10 02:29:42;;;;;;;;;;;18.60;99.90;;;;;;5013963;28;20300;-92
2023/07/10 02:32:32;;;;;;;;;;;18.60;99.90;;;;;;5015308;28;20010;-92
2023/07/10 02:35:09;;;;;;;;;;;18.60;99.90;;;;;;5027325;28;20434;-91
2023/07/10 02:37:35;;;;;;;;;;;18.60;99.90;;;;;;4999309;28;20314;-91
2023/07/10 02:40:21;;;;;;;;;;;18.60;99.90;;;;;;5021363;28;20066;-91
2023/07/10 02:42:46;;;;;;;;;;;18.60;99.90;;;;;;5048296;28;20949;-92
2023/07/10 02:48:06;;;;;;;;;;;18.60;99.90;;;;;;5046077;28;20403;-90
2023/07/10 02:50:46;;;;;;;;;;;18.60;99.90;;;;;;4998979;28;19926;-91
2023/07/10 02:53:15;;;;;;;;;;;18.60;99.90;;;;;;5026681;28;19975;-91
2023/07/10 02:55:47;;;;;;;;;;;18.70;99.90;;;;;;5022432;28;19936;-91
2023/07/10 02:58:12;;;;;;;;;;;18.70;99.90;;;;;;5035470;28;19921;-91
2023/07/10 03:00:39;;;;;;;;;;;18.60;99.90;;;;;;5019530;28;20016;-91
2023/07/10 03:03:07;;;;;;;;;;;18.60;99.90;;;;;;5037229;28;19925;-91
2023/07/10 03:05:36;;;;;;;;;;;18.60;99.90;;;;;;5037382;28;20015;-91
2023/07/10 03:08:20;;;;;;;;;;;18.60;99.90;;;;;;5044693;28;20004;-91
2023/07/10 03:10:46;;;;;;;;;;;18.70;99.90;;;;;;5023273;28;19924;-92
2023/07/10 03:16:04;;;;;;;;;;;18.60;99.90;;;;;;5024000;28;19940;-91
2023/07/10 03:18:33;;;;;;;;;;;18.60;99.90;;;;;;5034770;28;19980;-91
2023/07/10 03:20:58;;;;;;;;;;;18.60;99.90;;;;;;5017121;28;20395;-91
2023/07/10 03:23:33;;;;;;;;;;;18.60;99.90;;;;;;5033368;28;19928;-91
2023/07/10 03:26:17;;;;;;;;;;;18.60;99.90;;;;;;5037615;28;20295;-91
2023/07/10 03:28:43;;;;;;;;;;;18.60;99.90;;;;;;5016843;28;20023;-92
2023/07/10 03:31:30;;;;;;;;;;;18.60;99.90;;;;;;5019880;28;19947;-91
2023/07/10 03:33:58;;;;;;;;;;;18.60;99.90;;;;;;5018507;28;19987;-91
2023/07/10 03:36:24;;;;;;;;;;;18.50;99.90;;;;;;5036625;28;20019;-91
2023/07/10 03:38:50;;;;;;;;;;;18.60;99.90;;;;;;5028392;28;19980;-91
2023/07/10 03:41:18;;;;;;;;;;;18.50;99.90;;;;;;5044746;28;19964;-90
2023/07/10 03:43:43;;;;;;;;;;;18.40;99.90;;;;;;5018155;28;19947;-91
2023/07/10 03:46:12;;;;;;;;;;;18.50;99.90;;;;;;5020423;28;19944;-91
2023/07/10 03:48:37;;;;;;;;;;;18.50;99.90;;;;;;5025832;28;19929;-91
2023/07/10 03:51:03;;;;;;;;;;;18.50;99.90;;;;;;5017169;28;20019;-91
2023/07/10 03:53:29;;;;;;;;;;;18.50;99.90;;;;;;5009720;28;19931;-91
2023/07/10 03:55:55;;;;;;;;;;;18.50;99.90;;;;;;5000126;28;19936;-90
2023/07/10 03:58:26;;;;;;;;;;;18.50;99.90;;;;;;5008718;28;19928;-91
2023/07/10 04:00:51;;;;;;;;;;;18.50;99.90;;;;;;5011620;28;20320;-90
2023/07/10 04:03:21;;;;;;;;;;;18.50;99.90;;;;;;4996679;28;19925;-91
2023/07/10 04:05:51;;;;;;;;;;;18.60;99.90;;;;;;5022561;28;19931;-91
2023/07/10 04:08:16;;;;;;;;;;;18.60;99.90;;;;;;4996597;28;19932;-90
2023/07/10 04:10:47;;;;;;;;;;;18.60;99.90;;;;;;5006721;28;20308;-90
2023/07/10 04:13:13;;;;;;;;;;;18.60;99.90;;;;;;5024476;28;19993;-91
2023/07/10 04:15:38;;;;;;;;;;;18.70;99.90;;;;;;5007773;28;19976;-91
2023/07/10 04:18:06;;;;;;;;;;;18.70;99.90;;;;;;5008724;28;19936;-91
2023/07/10 04:20:32;;;;;;;;;;;18.70;99.90;;;;;;5014800;28;19986;-91
2023/07/10 04:22:58;;;;;;;;;;;18.70;99.90;;;;;;5001942;28;20270;-90
2023/07/10 04:25:42;;;;;;;;;;;18.70;99.90;;;;;;5029274;28;19932;-90
2023/07/10 04:28:07;;;;;;;;;;;18.70;99.90;;;;;;5012800;28;19925;-90
2023/07/10 04:30:36;;;;;;;;;;;18.70;99.90;;;;;;5012652;28;20474;-90
2023/07/10 04:33:02;;;;;;;;;;;18.70;99.90;;;;;;5015358;28;19929;-90
2023/07/10 04:35:40;;;;;;;;;;;18.70;99.90;;;;;;5004045;28;19930;-90
2023/07/10 04:38:06;;;;;;;;;;;18.70;99.90;;;;;;4998774;28;19925;-89
2023/07/10 04:40:53;;;;;;;;;;;18.80;99.90;;;;;;5013992;28;19933;-90
2023/07/10 04:43:18;;;;;;;;;;;18.80;99.90;;;;;;4996192;28;19925;-90
2023/07/10 04:45:44;;;;;;;;;;;18.80;99.90;;;;;;5011720;28;19940;-90
2023/07/10 04:48:10;;;;;;;;;;;18.80;99.90;;;;;;4996848;28;20365;-90
2023/07/10 04:50:38;;;;;;;;;;;18.80;99.90;;;;;;5012947;28;20028;-90
2023/07/10 04:53:04;;;;;;;;;;;18.90;99.90;;;;;;5011956;28;20028;-90
2023/07/10 04:55:46;;;;;;;;;;;18.90;99.90;;;;;;5044856;28;19985;-90
2023/07/10 04:58:12;;;;;;;;;;;18.90;99.90;;;;;;5013642;28;19947;-89
2023/07/10 05:00:38;;;;;;;;;;;18.90;99.90;;;;;;5033455;28;20682;-90
2023/07/10 05:03:04;;;;;;;;;;;18.90;99.90;;;;;;5035113;28;20014;-90
2023/07/10 05:06:02;;;;;;;;;;;19.00;99.90;;;;;;5048399;28;20424;-90
2023/07/10 05:08:28;;;;;;;;;;;19.00;99.90;;;;;;4991309;28;19939;-89
2023/07/10 05:10:54;;;;;;;;;;;18.90;99.90;;;;;;5021247;28;20031;-90
2023/07/10 05:13:21;;;;;;;;;;;18.90;99.90;;;;;;5034009;28;20760;-89
2023/07/10 05:15:46;;;;;;;;;;;18.80;99.90;;;;;;5021363;28;19935;-90
2023/07/10 05:18:15;;;;;;;;;;;18.80;99.90;;;;;;5038695;28;19925;-90
2023/07/10 05:20:43;;;;;;;;;;;18.80;99.90;;;;;;5031430;28;20343;-90
2023/07/10 05:23:09;;;;;;;;;;;18.80;99.90;;;;;;5015684;28;19929;-90
2023/07/10 05:25:34;;;;;;;;;;;18.90;99.90;;;;;;5015596;28;19931;-90
2023/07/10 05:28:01;;;;;;;;;;;19.00;99.90;;;;;;5044007;28;20016;-90
2023/07/10 05:30:27;;;;;;;;;;;19.00;99.90;;;;;;5031323;28;20233;-89
2023/07/10 05:32:53;;;;;;;;;;;19.10;99.90;;;;;;5027867;28;19929;-89
2023/07/10 05:35:19;;;;;;;;;;;19.10;99.90;;;;;;5014599;28;19986;-88
2023/07/10 05:37:44;;;;;;;;;;;19.20;99.90;;;;;;5032178;28;20011;-89
2023/07/10 05:40:10;;;;;;;;;;;19.30;99.90;;;;;;5031865;28;19975;-90
2023/07/10 05:42:38;;;;;;;;;;;19.30;99.90;;;;;;5043372;28;19931;-89
2023/07/10 05:45:03;;;;;;;;;;;19.50;99.90;;;;;;5031357;28;19978;-90
2023/07/10 05:47:35;;;;;;;;;;;19.60;99.90;;;;;;5030246;28;19925;-89
2023/07/10 05:50:03;;;;;;;;;;;19.70;99.90;;;;;;5010034;28;20447;-89
2023/07/10 05:52:47;;;;;;;;;;;19.80;99.90;;;;;;5033053;28;20174;-89
2023/07/10 05:55:12;;;;;;;;;;;19.90;99.90;;;;;;5030936;28;19937;-89
2023/07/10 05:57:38;;;;;;;;;;;20.00;99.90;;;;;;5014043;28;19948;-89
2023/07/10 06:00:04;;;;;;;;;;;20.00;99.90;;;;;;5015376;28;20368;-90
2023/07/10 06:02:30;;;;;;;;;;;20.10;99.90;;;;;;5026049;28;19970;-89
2023/07/10 06:04:56;;;;;;;;;;;20.10;99.90;;;;;;5043688;28;19925;-89
2023/07/10 06:07:21;;;;;;;;;;;20.10;99.90;;;;;;5014380;28;20002;-89
2023/07/10 06:09:48;;;;;;;;;;;20.10;99.90;;;;;;5057672;28;19928;-89
2023/07/10 06:12:14;;;;;;;;;;;20.10;99.90;;;;;;5026685;28;19978;-90
2023/07/10 06:14:39;;;;;;;;;;;20.00;99.90;;;;;;5034376;28;19978;-90
2023/07/10 06:17:05;;;;;;;;;;;20.00;99.90;;;;;;5041870;28;20054;-90
2023/07/10 06:19:31;;;;;;;;;;;20.00;99.90;;;;;;5046826;28;20428;-90
2023/07/10 06:22:10;;;;;;;;;;;20.10;99.90;;;;;;5035987;28;19924;-89
2023/07/10 06:24:36;;;;;;;;;;;20.30;99.90;;;;;;5009149;28;20292;-89
2023/07/10 06:27:02;;;;;;;;;;;20.40;99.90;;;;;;5047527;28;19925;-89
2023/07/10 06:29:28;;;;;;;;;;;20.60;99.90;;;;;;5026447;28;19933;-89
2023/07/10 06:31:54;;;;;;;;;;;20.60;99.90;;;;;;5021338;28;19932;-89
2023/07/10 06:34:20;;;;;;;;;;;20.50;99.90;;;;;;5015820;28;19963;-89
2023/07/10 06:36:45;;;;;;;;;;;20.50;99.90;;;;;;5033697;28;19921;-89
2023/07/10 06:39:11;;;;;;;;;;;20.50;99.90;;;;;;5014148;28;19933;-89
2023/07/10 06:41:36;;;;;;;;;;;20.50;99.90;;;;;;5014716;28;19962;-90
2023/07/10 06:44:02;;;;;;;;;;;20.40;99.90;;;;;;5011178;28;19932;-92
2023/07/10 06:46:28;;;;;;;;;;;20.30;99.90;;;;;;5015541;28;19929;-92
2023/07/10 06:48:56;;;;;;;;;;;20.30;99.90;;;;;;5014939;28;20507;-92
2023/07/10 06:51:35;;;;;;;;;;;;;;;;;;;;;
2023/07/10 06:54:17;;;;;;;;;;;20.50;99.90;;;;;;5043844;28;19994;-83
2023/07/10 06:56:42;;;;;;;;;;;20.60;99.90;;;;;;5035605;28;19928;-82
2023/07/10 06:59:08;;;;;;;;;;;20.70;99.90;;;;;;5052598;28;19936;-83
2023/07/10 07:01:34;;;;;;;;;;;20.80;99.90;;;;;;5039345;28;19935;-83
2023/07/10 07:03:59;;;;;;;;;;;20.80;99.90;;;;;;5059812;28;19928;-83
2023/07/10 07:06:25;;;;;;;;;;;20.90;99.90;;;;;;5041120;28;19929;-83
2023/07/10 07:08:51;;;;;;;;;;;20.90;99.90;;;;;;5000756;28;19936;-83
2023/07/10 07:11:17;;;;;;;;;;;20.90;99.90;;;;;;5026923;28;19929;-83
2023/07/10 07:13:43;;;;;;;;;;;21.00;99.90;;;;;;5042105;28;19928;-87
2023/07/10 07:16:09;;;;;;;;;;;21.00;99.90;;;;;;5050217;28;20014;-83
2023/07/10 07:18:35;;;;;;;;;;;21.00;99.90;;;;;;5047607;28;20395;-83
2023/07/10 07:21:01;;;;;;;;;;;21.10;99.90;;;;;;5013725;28;19936;-83
2023/07/10 07:23:27;;;;;;;;;;;21.20;99.90;;;;;;5037271;28;19935;-83
2023/07/10 07:25:56;;;;;;;;;;;21.20;99.90;;;;;;5015207;28;19994;-88
2023/07/10 07:28:22;;;;;;;;;;;21.30;99.90;;;;;;5027345;28;19936;-88
2023/07/10 07:30:47;;;;;;;;;;;21.40;99.90;;;;;;5021301;28;19925;-88
2023/07/10 07:33:26;;;;;;;;;;;21.50;99.90;;;;;;5018794;28;19929;-88
2023/07/10 07:35:52;;;;;;;;;;;21.60;99.90;;;;;;5029352;28;19948;-88
2023/07/10 07:38:23;;;;;;;;;;;21.70;99.90;;;;;;5017757;28;19933;-88
2023/07/10 07:41:09;;;;;;;;;;;21.80;99.90;;;;;;5000904;28;20285;-87
2023/07/10 07:43:41;;;;;;;;;;;21.90;99.90;;;;;;5002760;28;19936;-88
2023/07/10 07:46:07;;;;;;;;;;;22.00;99.90;;;;;;5013779;28;19943;-88
2023/07/10 07:48:52;;;;;;;;;;;22.10;99.90;;;;;;5029405;28;19928;-87
2023/07/10 07:51:20;;;;;;;;;;;22.20;99.90;;;;;;5029799;28;19929;-85
2023/07/10 07:53:46;;;;;;;;;;;22.20;99.90;;;;;;5044768;28;19929;-84
2023/07/10 07:56:12;;;;;;;;;;;22.20;99.90;;;;;;5044133;28;20382;-83
2023/07/10 07:58:37;;;;;;;;;;;22.20;99.90;;;;;;5061840;28;20070;-84
2023/07/10 08:01:03;;;;;;;;;;;22.40;99.90;;;;;;5041737;28;20398;-85
2023/07/10 08:03:29;;;;;;;;;;;22.50;99.90;;;;;;5025867;28;20427;-84
2023/07/10 08:05:55;;;;;;;;;;;22.60;99.90;;;;;;5063784;28;19944;-85
2023/07/10 08:08:24;;;;;;;;;;;22.80;99.90;;;;;;5017397;28;20300;-83
2023/07/10 08:10:51;;;;;;;;;;;22.90;99.90;;;;;;5006144;28;19925;-83
2023/07/10 08:13:18;;;;;;;;;;;22.90;99.90;;;;;;5011103;28;20004;-84
2023/07/10 08:15:44;;;;;;;;;;;23.00;99.90;;;;;;5024514;28;20345;-85
2023/07/10 08:18:10;;;;;;;;;;;23.10;99.90;;;;;;5035737;28;19928;-84
2023/07/10 08:20:36;;;;;;;;;;;23.10;99.90;;;;;;5059027;28;19932;-84
2023/07/10 08:23:02;;;;;;;;;;;23.10;99.90;;;;;;5024948;28;19929;-83
2023/07/10 08:25:28;;;;;;;;;;;23.20;99.90;;;;;;5039351;28;19932;-82
2023/07/10 08:27:54;;;;;;;;;;;23.20;99.90;;;;;;5051617;28;19935;-83
2023/07/10 08:30:19;;;;;;;;;;;23.20;99.90;;;;;;5037510;28;19977;-84
2023/07/10 08:32:45;;;;;;;;;;;23.00;99.90;;;;;;5033592;28;19925;-83
2023/07/10 08:35:11;;;;;;;;;;;23.00;99.90;;;;;;5056635;28;19929;-83
2023/07/10 08:37:37;;;;;;;;;;;22.90;99.90;;;;;;5015451;28;20300;-84
2023/07/10 08:40:03;;;;;;;;;;;23.00;99.90;;;;;;5021030;28;19928;-83
2023/07/10 08:42:30;;;;;;;;;;;23.10;99.90;;;;;;5014741;28;20384;-87
2023/07/10 08:44:55;;;;;;;;;;;23.00;99.90;;;;;;5013832;28;20114;-83
2023/07/10 08:47:23;;;;;;;;;;;22.80;99.90;;;;;;5043217;28;20012;-83
2023/07/10 08:49:54;;;;;;;;;;;22.90;99.90;;;;;;5021340;28;19940;-87
2023/07/10 08:52:29;;;;;;;;;;;22.90;99.90;;;;;;5033962;28;19928;-86
2023/07/10 08:54:54;;;;;;;;;;;23.10;99.90;;;;;;5045421;28;20475;-87
2023/07/10 08:57:23;;;;;;;;;;;23.20;99.90;;;;;;5038430;28;19939;-87
2023/07/10 09:00:02;;;;;;;;;;;23.30;99.90;;;;;;5023508;28;20384;-87
2023/07/10 09:02:36;;;;;;;;;;;23.20;99.90;;;;;;5012432;28;19934;-87
2023/07/10 09:05:04;;;;;;;;;;;23.20;99.90;;;;;;5028033;28;20384;-87
2023/07/10 09:07:33;;;;;;;;;;;23.30;99.90;;;;;;5013032;28;20017;-87
2023/07/10 09:10:01;;;;;;;;;;;23.40;99.90;;;;;;5013661;28;20011;-87
2023/07/10 09:12:30;;;;;;;;;;;23.50;99.90;;;;;;5019345;28;20800;-87
2023/07/10 09:15:01;;;;;;;;;;;23.50;99.90;;;;;;5024500;28;19936;-87
2023/07/10 09:17:31;;;;;;;;;;;23.50;99.90;;;;;;5042566;28;19930;-87
2023/07/10 09:19:59;;;;;;;;;;;23.70;99.90;;;;;;5036546;28;19929;-87
2023/07/10 09:22:25;;;;;;;;;;;23.80;99.90;;;;;;5037272;28;19924;-87
2023/07/10 09:24:50;;;;;;;;;;;23.90;99.90;;;;;;5038728;28;19935;-87
2023/07/10 09:27:16;;;;;;;;;;;23.90;99.90;;;;;;5040374;28;19970;-87
2023/07/10 09:29:45;;;;;;;;;;;24.00;99.90;;;;;;5036678;28;20015;-87
2023/07/10 09:32:16;;;;;;;;;;;24.00;99.90;;;;;;5029525;28;19932;-87
2023/07/10 09:34:53;;;;;;;;;;;24.00;99.90;;;;;;5030477;28;20019;-88
2023/07/10 09:37:21;;;;;;;;;;;24.10;99.90;;;;;;5036424;28;20388;-89
2023/07/10 09:39:47;;;;;;;;;;;24.20;99.90;;;;;;5018673;28;20359;-86
2023/07/10 09:42:14;;;;;;;;;;;24.20;99.90;;;;;;5017310;28;19972;-87
2023/07/10 09:44:45;;;;;;;;;;;24.40;99.90;;;;;;5004117;28;19928;-87
2023/07/10 09:47:12;;;;;;;;;;;24.60;99.90;;;;;;5033036;28;19994;-87
2023/07/10 09:49:44;;;;;;;;;;;24.60;99.90;;;;;;5014389;28;19932;-86
2023/07/10 09:52:21;;;;;;;;;;;24.60;99.90;;;;;;5045929;28;20014;-86
2023/07/10 09:54:48;;;;;;;;;;;24.50;99.90;;;;;;5020260;28;20023;-85
2023/07/10 09:57:15;;;;;;;;;;;24.50;99.90;;;;;;5016454;28;19988;-86
2023/07/10 09:59:46;;;;;;;;;;;24.40;99.90;;;;;;5015901;28;19924;-86
2023/07/10 10:02:18;;;;;;;;;;;24.50;99.90;;;;;;5025419;28;19925;-86
2023/07/10 10:04:48;;;;;;;;;;;24.60;99.90;;;;;;4994451;28;19932;-86
2023/07/10 10:07:19;;;;;;;;;;;24.50;99.90;;;;;;5032584;28;20232;-85
2023/07/10 10:09:45;;;;;;;;;;;24.60;99.90;;;;;;5011386;28;19936;-86
2023/07/10 10:12:26;;;;;;;;;;;24.90;99.90;;;;;;5022387;28;20563;-85
2023/07/10 10:15:07;;;;;;;;;;;25.20;99.90;;;;;;5008473;28;19929;-85
2023/07/10 10:17:36;;;;;;;;;;;25.40;99.90;;;;;;5004281;28;20015;-87
2023/07/10 10:20:15;;;;;;;;;;;25.70;99.90;;;;;;5035816;28;19932;-87
2023/07/10 10:22:40;;;;;;;;;;;25.70;99.90;;;;;;5003627;28;19925;-86
2023/07/10 10:25:13;;;;;;;;;;;25.50;99.90;;;;;;5024776;28;20408;-87
2023/07/10 10:27:43;;;;;;;;;;;25.30;99.90;;;;;;5006374;28;19929;-86
2023/07/10 10:30:20;;;;;;;;;;;25.10;99.90;;;;;;5019800;28;20460;-86
2023/07/10 10:32:53;;;;;;;;;;;25.20;99.90;;;;;;4996482;28;19925;-86
2023/07/10 10:35:30;;;;;;;;;;;25.20;99.90;;;;;;5013283;28;19975;-85
2023/07/10 10:37:56;;;;;;;;;;;25.30;99.90;;;;;;5011805;28;19928;-86
2023/07/10 10:40:48;;;;;;;;;;;25.30;99.90;;;;;;5030874;28;19978;-85
2023/07/10 10:43:32;;;;;;;;;;;25.40;99.90;;;;;;4997505;28;19932;-86
2023/07/10 10:45:58;;;;;;;;;;;25.50;99.90;;;;;;5044971;28;19929;-86
2023/07/10 10:48:36;;;;;;;;;;;25.50;99.90;;;;;;5030192;28;19952;-86
2023/07/10 10:51:05;;;;;;;;;;;25.60;99.90;;;;;;5046620;28;19929;-86
2023/07/10 10:53:36;;;;;;;;;;;25.50;99.90;;;;;;5012746;28;19983;-85
2023/07/10 10:56:10;;;;;;;;;;;25.40;99.90;;;;;;5005159;28;19929;-86
2023/07/10 10:58:49;;;;;;;;;;;25.20;99.90;;;;;;5028632;28;20039;-86
2023/07/10 11:01:15;;;;;;;;;;;25.10;99.90;;;;;;5017212;28;20440;-86
2023/07/10 11:03:44;;;;;;;;;;;25.10;99.90;;;;;;5047475;28;20019;-86
2023/07/10 11:06:28;;;;;;;;;;;25.10;99.90;;;;;;5025718;28;20444;-85
2023/07/10 11:08:58;;;;;;;;;;;25.10;99.90;;;;;;5038030;28;19973;-86
2023/07/10 11:11:28;;;;;;;;;;;24.80;99.90;;;;;;5025537;28;20377;-84
2023/07/10 11:13:54;;;;;;;;;;;24.80;99.90;;;;;;5030561;28;20016;-85
2023/07/10 11:16:19;;;;;;;;;;;24.60;99.90;;;;;;5011179;28;20019;-85
2023/07/10 11:18:46;;;;;;;;;;;24.80;99.90;;;;;;5001465;28;19976;-86
2023/07/10 11:21:11;;;;;;;;;;;25.00;99.90;;;;;;5003725;28;20442;-85
2023/07/10 11:23:43;;;;;;;;;;;25.20;99.90;;;;;;5001568;28;19936;-85
2023/07/10 11:26:13;;;;;;;;;;;25.40;99.90;;;;;;5025812;28;19925;-85
2023/07/10 11:28:47;;;;;;;;;;;25.50;99.90;;;;;;5037008;28;19968;-86
2023/07/10 11:31:22;;;;;;;;;;;25.40;99.90;;;;;;5024434;28;20079;-85
2023/07/10 11:33:49;;;;;;;;;;;25.10;99.90;;;;;;5043222;28;19925;-86
2023/07/10 11:36:16;;;;;;;;;;;25.10;99.90;;;;;;5021903;28;19979;-85
2023/07/10 11:39:02;;;;;;;;;;;25.20;99.90;;;;;;5015659;28;19975;-85
2023/07/10 11:41:29;;;;;;;;;;;25.30;99.90;;;;;;4980405;28;19925;-85
2023/07/10 11:44:11;;;;;;;;;;;25.30;99.90;;;;;;5004177;28;20361;-85
2023/07/10 11:46:37;;;;;;;;;;;25.50;99.90;;;;;;5007726;28;19935;-85
2023/07/10 11:49:13;;;;;;;;;;;25.50;99.90;;;;;;5049815;28;19935;-85
2023/07/10 11:51:40;;;;;;;;;;;25.70;99.90;;;;;;5043937;28;19932;-84
2023/07/10 11:54:05;;;;;;;;;;;25.90;99.90;;;;;;5030153;28;20702;-85
2023/07/10 11:56:31;;;;;;;;;;;26.10;99.90;;;;;;4999203;28;20386;-85
2023/07/10 11:59:14;;;;;;;;;;;26.20;99.90;;;;;;5008339;28;20449;-85
2023/07/10 12:01:41;;;;;;;;;;;26.10;99.90;;;;;;5018643;28;20339;-85
2023/07/10 12:04:13;;;;;;;;;;;26.00;99.90;;;;;;5052161;28;19932;-85
2023/07/10 12:06:43;;;;;;;;;;;25.70;99.90;;;;;;5023210;28;19940;-85
2023/07/10 12:09:09;;;;;;;;;;;25.40;99.90;;;;;;5050310;28;19940;-85
2023/07/10 12:11:38;;;;;;;;;;;25.40;99.90;;;;;;5023218;28;20115;-85
2023/07/10 12:14:11;;;;;;;;;;;25.60;99.90;;;;;;5050253;28;19928;-85
2023/07/10 12:16:48;;;;;;;;;;;25.60;99.90;;;;;;5014585;28;19936;-85
2023/07/10 12:19:19;;;;;;;;;;;25.70;99.90;;;;;;5063968;28;19924;-85
2023/07/10 12:21:45;;;;;;;;;;;25.70;99.90;;;;;;5034621;28;19929;-85
2023/07/10 12:24:15;;;;;;;;;;;25.70;99.90;;;;;;5020367;28;19932;-85
2023/07/10 12:26:40;;;;;;;;;;;25.60;99.90;;;;;;5021506;28;19963;-85
2023/07/10 12:29:11;;;;;;;;;;;25.40;99.90;;;;;;5029552;28;20494;-85
2023/07/10 12:31:38;;;;;;;;;;;25.30;99.90;;;;;;5041811;28;20167;-84
2023/07/10 12:34:03;;;;;;;;;;;25.10;99.90;;;;;;5027425;28;19930;-85
2023/07/10 12:36:52;;;;;;;;;;;25.20;99.90;;;;;;5024139;28;20387;-85
2023/07/10 12:39:18;;;;;;;;;;;25.40;99.90;;;;;;5010903;28;19955;-85
2023/07/10 12:41:47;;;;;;;;;;;25.70;99.90;;;;;;5008762;28;20362;-85
2023/07/10 12:44:23;;;;;;;;;;;26.00;99.90;;;;;;5000959;28;20369;-85
2023/07/10 12:46:57;;;;;;;;;;;26.20;99.90;;;;;;5031026;28;19929;-84
2023/07/10 12:49:28;;;;;;;;;;;26.10;99.90;;;;;;5031313;28;19925;-84
2023/07/10 12:51:54;;;;;;;;;;;25.80;99.90;;;;;;5046987;28;19929;-85
2023/07/10 12:54:25;;;;;;;;;;;25.50;99.70;;;;;;5047565;28;19928;-85
2023/07/10 12:56:51;;;;;;;;;;;25.10;99.90;;;;;;5066285;28;19950;-84
2023/07/10 12:59:29;;;;;;;;;;;24.90;99.90;;;;;;5049348;28;19973;-85
2023/07/10 13:02:02;;;;;;;;;;;24.90;99.90;;;;;;5066381;28;20311;-85
2023/07/10 13:04:29;;;;;;;;;;;25.10;99.90;;;;;;5024183;28;19925;-85
2023/07/10 13:07:02;;;;;;;;;;;25.20;99.90;;;;;;5047806;28;19939;-85
2023/07/10 13:09:30;;;;;;;;;;;25.40;99.90;;;;;;5031858;28;19931;-85
2023/07/10 13:11:56;;;;;;;;;;;25.50;99.70;;;;;;5047189;28;19928;-87
2023/07/10 13:14:29;;;;;;;;;;;25.40;99.90;;;;;;5027501;28;19931;-90
2023/07/10 13:16:56;;;;;;;;;;;25.40;99.90;;;;;;5031259;28;20485;-90
2023/07/10 13:19:22;;;;;;;;;;;25.40;99.90;;;;;;5140149;23;20015;-88
2023/07/10 13:21:48;;;;;;;;;;;25.40;99.90;;;;;;4992067;28;19968;-91
2023/07/10 13:24:22;;;;;;;;;;;25.40;99.90;;;;;;5002987;28;19924;-90
2023/07/10 13:26:49;;;;;;;;;;;25.20;99.90;;;;;;5010478;28;19975;-90
2023/07/10 13:32:15;;;;;;;;;;;25.00;99.90;;;;;;4978378;28;20175;-91
2023/07/10 13:35:07;;;;;;;;;;;25.00;99.90;;;;;;4990558;28;20530;-91
2023/07/10 13:38:09;;;;;;;;;;;25.10;99.90;;;;;;4895535;29;19927;-92
2023/07/10 13:41:03;;;;;;;;;;;25.20;99.90;;;;;;4906087;29;20403;-91
2023/07/10 13:47:44;;;;;;;;;;;;;;;;;;;;;
2023/07/10 13:50:34;;;;;;;;;;;25.10;95.50;;;;;;4938890;28;20322;-91
2023/07/10 13:56:21;;;;;;;;;;;24.80;97.60;;;;;;4953765;28;19927;-91
2023/07/10 13:58:54;;;;;;;;;;;24.90;99.30;;;;;;4938211;28;19934;-93
2023/07/10 14:01:35;;;;;;;;;;;24.90;99.10;;;;;;4955357;28;19926;-91
2023/07/10 14:07:24;;;;;;;;;;;24.90;98.50;;;;;;4974495;28;19926;-90
2023/07/10 14:10:11;;;;;;;;;;;;;;;;;;;;;
2023/07/10 14:16:17;;;;;;;;;;;24.90;96.90;;;;;;4940271;29;19981;-91
2023/07/10 14:18:46;;;;;;;;;;;24.90;96.70;;;;;;4917044;29;20009;-90
2023/07/10 14:21:12;;;;;;;;;;;24.90;95.00;;;;;;4934029;28;20020;-89
2023/07/10 14:23:44;;;;;;;;;;;25.10;97.10;;;;;;4961015;28;19939;-91
2023/07/10 14:26:43;;;;;;;;;;;25.00;96.30;;;;;;4976449;28;19925;-88
2023/07/10 14:29:16;;;;;;;;;;;25.00;95.30;;;;;;4975708;28;20303;-89
2023/07/10 14:31:52;;;;;;;;;;;24.90;97.40;;;;;;4995989;28;19926;-90
2023/07/10 14:34:18;;;;;;;;;;;24.90;97.30;;;;;;4966747;28;19953;-86
2023/07/10 14:36:46;;;;;;;;;;;24.90;96.20;;;;;;4975363;28;19973;-88
2023/07/10 14:39:12;;;;;;;;;;;25.00;95.50;;;;;;4958507;28;19929;-90
2023/07/10 14:41:38;;;;;;;;;;;24.90;93.70;;;;;;4956366;28;20743;-89
2023/07/10 14:44:03;;;;;;;;;;;24.90;93.10;;;;;;4996932;28;20396;-90
2023/07/10 14:46:31;;;;;;;;;;;24.90;94.40;;;;;;5011527;28;19936;-90
2023/07/10 14:48:59;;;;;;;;;;;24.90;94.10;;;;;;5012250;28;19940;-89
2023/07/10 14:51:25;;;;;;;;;;;24.90;94.00;;;;;;4992301;28;19929;-90
2023/07/10 14:53:51;;;;;;;;;;;24.90;93.70;;;;;;4988741;28;19944;-86
2023/07/10 14:56:16;;;;;;;;;;;24.90;94.10;;;;;;5015489;28;20396;-84
2023/07/10 14:58:42;;;;;;;;;;;24.90;93.10;;;;;;5015953;28;20290;-84
2023/07/10 15:01:16;;;;;;;;;;;24.90;93.30;;;;;;5008292;28;19973;-85
2023/07/10 15:03:41;;;;;;;;;;;25.00;92.50;;;;;;5008558;28;19983;-85
2023/07/10 15:06:19;;;;;;;;;;;25.10;93.60;;;;;;5008847;28;20345;-85
2023/07/10 15:08:47;;;;;;;;;;;25.10;93.40;;;;;;5009284;28;19929;-84
2023/07/10 15:11:13;;;;;;;;;;;25.10;92.30;;;;;;5008103;28;20408;-85
2023/07/10 15:13:38;;;;;;;;;;;25.00;90.80;;;;;;5008140;28;19933;-84
2023/07/10 15:16:04;;;;;;;;;;;24.90;91.90;;;;;;5006966;28;19926;-85
2023/07/10 15:18:31;;;;;;;;;;;25.00;92.80;;;;;;5007570;28;20271;-84
2023/07/10 15:20:57;;;;;;;;;;;25.10;93.30;;;;;;4990046;28;20391;-85
2023/07/10 15:23:23;;;;;;;;;;;25.00;92.90;;;;;;5008493;28;19959;-84
2023/07/10 15:25:50;;;;;;;;;;;25.00;91.90;;;;;;5006926;28;19925;-85
2023/07/10 15:28:17;;;;;;;;;;;25.10;93.00;;;;;;4993686;28;19979;-84
2023/07/10 15:30:43;;;;;;;;;;;25.20;92.30;;;;;;4992821;28;19936;-85
2023/07/10 15:33:13;;;;;;;;;;;25.20;92.60;;;;;;4993212;28;19925;-85
2023/07/10 15:35:39;;;;;;;;;;;25.30;92.10;;;;;;5008423;28;19934;-84
2023/07/10 15:38:09;;;;;;;;;;;25.20;90.60;;;;;;5010098;28;20274;-84
2023/07/10 15:40:35;;;;;;;;;;;25.20;90.90;;;;;;5007209;28;20019;-84
2023/07/10 15:43:01;;;;;;;;;;;25.20;89.90;;;;;;5005222;28;20398;-85
2023/07/10 15:45:31;;;;;;;;;;;25.20;86.30;;;;;;5010837;28;19979;-85
2023/07/10 15:48:00;;;;;;;;;;;25.20;89.30;;;;;;4997597;28;20113;-84
2023/07/10 15:50:26;;;;;;;;;;;25.30;89.40;;;;;;5027275;28;19995;-85
2023/07/10 15:52:53;;;;;;;;;;;25.40;89.80;;;;;;5020729;28;19930;-85
2023/07/10 15:55:20;;;;;;;;;;;25.40;89.60;;;;;;5003585;28;20384;-85
2023/07/10 15:57:46;;;;;;;;;;;25.40;87.90;;;;;;5021430;28;20008;-85
2023/07/10 16:00:15;;;;;;;;;;;25.40;87.90;;;;;;4999579;28;19926;-85
2023/07/10 16:02:41;;;;;;;;;;;25.50;88.10;;;;;;5004147;28;19943;-85